Time;durP1;ratioP1;P1;durP2;ratioP2;P2;SDS_P1;SDS_P2;PMS_P1;PMS_P2;Temp;Humidity;BMP_temperature;BMP_pressure;BME280_temperature;BME280_humidity;BME280_pressure;Samples;Min_cycle;Max_cycle;Signal;HPM_P1;HPM_P2
2022/09/19 00:03:32;;;;;;;;;;;14.90;51.00;;;12.90;56.44;100324.81;12250567;19;19914;-87
2022/09/19 00:07:34;;;;;;;;;;;14.90;51.10;;;12.81;56.43;100316.69;12252188;19;19914;-87
2022/09/19 00:11:38;;;;;;;;;;;15.00;51.20;;;12.77;56.45;100315.22;12251494;19;19926;-86
2022/09/19 00:15:50;;;;;;;;;;;15.30;51.20;;;12.79;56.53;100313.31;12248705;19;19918;-87
2022/09/19 00:19:51;;;;;;;;;;;14.90;51.10;;;12.88;56.52;100338.06;12252038;19;20340;-87
2022/09/19 00:28:14;;;;;;;;;;;14.90;51.20;;;12.92;56.58;100339.50;12250274;19;19922;-87
2022/09/19 00:32:15;;;;;;;;;;;14.90;51.20;;;12.75;56.58;100305.81;12250948;19;19918;-87
2022/09/19 00:36:17;;;;;;;;;;;14.90;51.30;;;12.97;56.52;100334.75;12245967;19;19938;-87
2022/09/19 00:40:18;;;;;;;;;;;14.90;51.20;;;12.92;56.54;100333.44;12248715;19;20329;-86
2022/09/19 00:44:23;;;;;;;;;;;14.90;51.20;;;12.96;56.60;100345.34;12244003;19;19918;-87
2022/09/19 00:48:25;;;;;;;;;;;15.00;51.20;;;12.82;56.57;100328.81;12247910;19;19936;-86
2022/09/19 00:52:53;;;;;;;;;;;15.30;51.40;;;12.99;56.62;100355.63;12252197;19;19918;-87
2022/09/19 00:56:56;;;;;;;;;;;15.00;51.30;;;12.96;56.76;100358.44;12254869;19;19921;-87
2022/09/19 01:00:59;;;;;;;;;;;15.00;51.30;;;12.86;56.47;100344.34;12258862;19;19919;-87
2022/09/19 01:05:02;;;;;;;;;;;14.90;51.30;;;12.91;56.59;100348.31;12255686;19;19932;-87
2022/09/19 01:09:49;;;;;;;;;;;14.90;51.40;;;13.02;56.62;100360.66;12258966;19;19915;-86
2022/09/19 01:14:03;;;;;;;;;;;15.00;51.40;;;12.99;56.67;100359.09;12257834;19;19915;-87
2022/09/19 01:18:06;;;;;;;;;;;15.20;51.20;;;12.91;56.68;100347.44;12259026;19;19937;-87
2022/09/19 01:22:43;;;;;;;;;;;15.00;51.40;;;12.91;56.66;100360.56;12254663;19;20392;-86
2022/09/19 01:27:17;;;;;;;;;;;15.00;51.30;;;12.96;56.77;100364.56;12253525;19;19922;-87
2022/09/19 01:31:29;;;;;;;;;;;15.00;51.30;;;12.90;56.76;100367.59;12257644;19;20249;-87
2022/09/19 01:35:37;;;;;;;;;;;14.90;51.40;;;12.87;56.70;100356.50;12253474;19;19950;-87
2022/09/19 01:39:41;;;;;;;;;;;14.90;51.40;;;12.82;56.92;100360.25;12257186;19;19919;-87
2022/09/19 01:43:43;;;;;;;;;;;15.10;51.40;;;12.90;56.77;100378.06;12260539;19;19907;-87
2022/09/19 01:47:59;;;;;;;;;;;15.00;51.40;;;12.89;56.69;100375.56;12259624;19;19936;-87
2022/09/19 01:52:34;;;;;;;;;;;14.90;51.40;;;12.87;56.90;100383.53;12258807;19;19927;-87
2022/09/19 01:56:57;;;;;;;;;;;14.90;51.40;;;12.78;56.81;100373.72;12252234;19;19919;-86
2022/09/19 02:01:07;;;;;;;;;;;14.90;51.40;;;12.86;56.87;100394.97;12257226;19;19986;-86
2022/09/19 02:05:13;;;;;;;;;;;14.90;51.30;;;12.78;56.76;100379.78;12253387;19;20268;-87
2022/09/19 02:09:25;;;;;;;;;;;14.90;51.40;;;12.83;56.89;100395.19;12257624;19;19938;-87
2022/09/19 02:13:30;;;;;;;;;;;14.80;51.40;;;12.52;56.81;100351.94;12255816;19;19981;-86
2022/09/19 02:17:50;;;;;;;;;;;14.80;51.40;;;12.48;56.82;100350.50;12255946;19;19921;-87
2022/09/19 02:21:56;;;;;;;;;;;14.80;51.40;;;12.76;57.01;100404.41;12254519;19;20364;-87
2022/09/19 02:26:02;;;;;;;;;;;14.80;51.40;;;12.47;56.79;100361.88;12252962;19;19919;-87
2022/09/19 02:30:08;;;;;;;;;;;14.80;51.30;;;12.69;56.90;100395.28;12255503;19;19911;-87
2022/09/19 02:34:13;;;;;;;;;;;14.80;51.40;;;12.35;56.95;100338.22;12253562;19;19922;-86
2022/09/19 02:38:33;;;;;;;;;;;14.80;51.40;;;12.85;56.76;100419.47;12254141;19;19953;-86
2022/09/19 02:42:48;;;;;;;;;;;14.80;51.40;;;12.81;56.90;100410.19;12251447;19;19921;-87
2022/09/19 02:46:54;;;;;;;;;;;14.80;51.50;;;12.77;56.96;100409.56;12254220;19;19918;-87
2022/09/19 02:51:19;;;;;;;;;;;14.90;51.50;;;12.80;57.04;100425.06;12252785;19;19923;-87
2022/09/19 02:55:25;;;;;;;;;;;14.80;51.50;;;12.77;57.05;100417.41;12250848;19;19974;-86
2022/09/19 02:59:31;;;;;;;;;;;14.80;51.40;;;12.47;56.97;100374.97;12252377;19;19922;-87
2022/09/19 03:08:08;;;;;;;;;;;14.80;51.50;;;12.76;57.07;100434.06;12250302;19;19921;-87
2022/09/19 03:12:35;;;;;;;;;;;14.80;51.40;;;12.74;57.17;100437.75;12249838;19;20251;-86
2022/09/19 03:16:41;;;;;;;;;;;14.80;51.50;;;12.79;56.81;100451.38;12245341;19;19927;-85
2022/09/19 03:20:53;;;;;;;;;;;14.80;51.60;;;12.60;57.02;100428.22;12248201;19;19922;-85
2022/09/19 03:24:56;;;;;;;;;;;14.80;51.60;;;12.66;57.24;100446.13;12247121;19;20362;-85
2022/09/19 03:28:58;;;;;;;;;;;14.80;51.60;;;12.76;57.13;100465.50;12249190;19;19923;-85
2022/09/19 03:33:06;;;;;;;;;;;14.70;51.60;;;12.58;57.17;100437.94;12247305;19;19974;-85
2022/09/19 03:37:08;;;;;;;;;;;14.80;51.70;;;12.70;57.16;100460.69;12249176;19;19990;-85
2022/09/19 03:41:12;;;;;;;;;;;14.90;51.70;;;12.66;57.25;100450.53;12250790;19;20340;-85
2022/09/19 03:45:14;;;;;;;;;;;14.70;51.60;;;12.58;57.12;100441.44;12250551;19;19923;-85
2022/09/19 03:49:16;;;;;;;;;;;14.70;51.60;;;12.58;57.15;100456.28;12253590;19;20358;-85
2022/09/19 03:53:20;;;;;;;;;;;14.70;51.70;;;12.72;57.34;100485.03;12248248;19;19922;-85
2022/09/19 03:57:22;;;;;;;;;;;15.00;51.80;;;12.69;57.19;100484.38;12250943;19;19911;-85
2022/09/19 04:01:24;;;;;;;;;;;14.80;51.70;;;12.73;57.28;100485.84;12250557;19;19958;-85
2022/09/19 04:05:27;;;;;;;;;;;14.70;51.60;;;12.60;57.38;100470.94;12247008;19;19919;-85
2022/09/19 04:09:29;;;;;;;;;;;14.80;51.70;;;12.72;57.30;100492.00;12248325;19;19927;-85
2022/09/19 04:13:35;;;;;;;;;;;14.80;51.80;;;12.78;57.32;100505.56;12247005;19;20264;-85
2022/09/19 04:17:48;;;;;;;;;;;14.80;51.70;;;12.45;57.30;100448.44;12247215;19;20230;-86
2022/09/19 04:21:54;;;;;;;;;;;14.80;51.80;;;12.78;57.35;100494.25;12245825;19;19927;-85
2022/09/19 04:26:05;;;;;;;;;;;14.80;51.80;;;12.88;57.32;100507.53;12249345;19;19911;-85
2022/09/19 04:30:10;;;;;;;;;;;14.80;51.80;;;12.80;57.34;100494.97;12260961;19;19911;-85
2022/09/19 04:34:14;;;;;;;;;;;14.90;51.90;;;12.91;57.36;100508.19;12255804;19;19915;-85
2022/09/19 04:38:18;;;;;;;;;;;14.90;51.90;;;12.94;57.27;100515.00;12258359;19;19907;-85
2022/09/19 04:42:21;;;;;;;;;;;14.90;51.90;;;12.92;57.46;100516.88;12258091;19;19919;-85
2022/09/19 04:46:23;;;;;;;;;;;15.20;52.00;;;12.91;57.44;100513.44;12259471;19;19935;-85
2022/09/19 04:50:29;;;;;;;;;;;15.00;51.90;;;12.95;57.37;100521.91;12257093;19;19923;-85
2022/09/19 04:54:37;;;;;;;;;;;15.00;51.90;;;12.94;57.31;100518.47;12252464;19;20341;-85
2022/09/19 04:58:40;;;;;;;;;;;15.20;52.00;;;13.00;57.38;100536.38;12256109;19;20483;-85
2022/09/19 05:02:47;;;;;;;;;;;15.00;51.90;;;13.00;57.40;100533.75;12255115;19;19911;-85
2022/09/19 05:06:48;;;;;;;;;;;15.30;52.10;;;13.02;57.40;100536.28;12254672;19;20012;-85
2022/09/19 05:10:54;;;;;;;;;;;15.00;51.60;;;13.00;57.46;100541.63;12255877;19;20528;-86
2022/09/19 05:14:57;;;;;;;;;;;15.00;51.80;;;13.05;57.53;100543.94;12253972;19;19960;-86
2022/09/19 05:19:00;;;;;;;;;;;15.10;52.00;;;13.04;57.53;100547.47;12256033;19;19926;-86
2022/09/19 05:23:02;;;;;;;;;;;15.30;52.10;;;13.07;57.55;100557.78;12251824;19;19943;-87
2022/09/19 05:27:04;;;;;;;;;;;15.40;52.10;;;12.99;57.52;100544.38;12254599;19;20339;-87
2022/09/19 05:31:12;;;;;;;;;;;15.10;52.10;;;12.83;57.52;100506.09;12253672;19;20469;-87
2022/09/19 05:35:20;;;;;;;;;;;15.40;52.20;;;13.11;57.74;100563.66;12250843;19;19911;-84
2022/09/19 05:39:35;;;;;;;;;;;15.10;51.90;;;13.15;57.61;100565.97;12255991;19;19923;-85
2022/09/19 05:43:55;;;;;;;;;;;15.50;52.10;;;13.16;57.53;100572.88;12254804;19;20697;-86
2022/09/19 05:48:04;;;;;;;;;;;15.20;52.10;;;13.03;57.65;100551.06;12255399;19;19930;-86
2022/09/19 05:56:27;;;;;;;;;;;15.20;52.10;;;13.15;57.66;100565.97;12252228;19;19982;-85
2022/09/19 06:00:37;;;;;;;;;;;15.30;52.30;;;13.18;57.59;100578.84;12254577;19;19915;-86
2022/09/19 06:04:38;;;;;;;;;;;15.30;52.20;;;13.22;57.52;100582.09;12243947;19;19982;-84
2022/09/19 06:08:42;;;;;;;;;;;15.30;52.10;;;13.30;57.65;100602.59;12252735;19;19975;-85
2022/09/19 06:12:47;;;;;;;;;;;15.30;52.20;;;13.25;57.63;100614.19;12250726;19;19924;-85
2022/09/19 06:16:49;;;;;;;;;;;15.30;52.40;;;13.31;57.69;100628.69;12249072;19;19911;-85
2022/09/19 06:21:10;;;;;;;;;;;15.30;52.30;;;13.24;57.67;100607.28;12255011;19;19914;-82
2022/09/19 06:25:14;;;;;;;;;;;15.30;52.40;;;13.28;57.69;100603.53;12248978;19;20375;-86
2022/09/19 06:29:16;;;;;;;;;;;15.30;52.40;;;13.21;57.76;100596.16;12253146;19;19947;-84
2022/09/19 06:33:31;;;;;;;;;;;15.30;52.40;;;13.39;57.80;100617.69;12246768;19;19928;-83
2022/09/19 06:37:35;;;;;;;;;;;15.40;52.40;;;13.24;57.86;100604.66;12251828;19;19910;-83
2022/09/19 06:41:39;;;;;;;;;;;15.70;52.70;;;13.45;57.74;100638.28;12252618;19;19907;-85
2022/09/19 06:45:48;;;;;;;;;;;15.40;52.60;;;13.04;57.78;100569.31;12247439;19;19918;-86
2022/09/19 06:50:16;;;;;;;;;;;15.40;52.70;;;13.32;57.92;100613.81;12247481;19;19942;-85
2022/09/19 06:54:29;;;;;;;;;;;15.50;52.80;;;13.52;57.86;100642.13;12246076;19;19926;-86
2022/09/19 06:58:31;;;;;;;;;;;15.50;52.80;;;13.61;57.81;100649.38;12248606;19;19966;-86
2022/09/19 07:02:32;;;;;;;;;;;15.90;52.90;;;13.60;57.87;100652.09;12248231;19;19998;-86
2022/09/19 07:06:34;;;;;;;;;;;15.60;52.70;;;13.61;57.95;100654.63;12246167;19;20325;-86
2022/09/19 07:10:46;;;;;;;;;;;15.60;53.40;;;13.60;57.94;100657.34;12248776;19;19932;-86
2022/09/19 07:14:48;;;;;;;;;;;15.70;52.90;;;13.73;57.96;100677.38;12244808;19;19914;-85
2022/09/19 07:18:50;;;;;;;;;;;15.70;53.00;;;13.67;57.93;100653.38;12247004;19;19919;-87
2022/09/19 07:23:21;;;;;;;;;;;15.70;53.10;;;13.73;58.02;100655.56;12240494;19;19919;-86
2022/09/19 07:27:42;;;;;;;;;;;15.80;53.20;;;13.19;58.06;100564.78;12248528;19;19970;-85
2022/09/19 07:31:46;;;;;;;;;;;15.80;53.00;;;13.89;57.97;100679.78;12244324;19;19941;-86
2022/09/19 07:35:48;;;;;;;;;;;15.80;52.90;;;13.90;58.07;100678.81;12242495;19;19939;-85
2022/09/19 07:39:52;;;;;;;;;;;15.90;53.00;;;13.97;58.13;100695.00;12248999;19;19915;-86
2022/09/19 07:44:06;;;;;;;;;;;16.30;53.30;;;14.03;58.02;100691.94;12243916;19;19919;-85
2022/09/19 07:48:47;;;;;;;;;;;16.00;53.00;;;13.89;58.04;100677.16;12244885;19;20094;-87
2022/09/19 07:53:14;;;;;;;;;;;16.30;53.00;;;14.16;58.04;100721.66;12246656;19;19918;-83
2022/09/19 07:57:16;;;;;;;;;;;16.20;53.10;;;14.05;58.14;100691.84;12247715;19;19939;-87
2022/09/19 08:01:18;;;;;;;;;;;16.20;53.20;;;14.12;58.12;100699.19;12260133;19;19926;-87
2022/09/19 08:05:39;;;;;;;;;;;16.20;53.20;;;14.35;58.17;100734.31;12274140;19;19961;-88
2022/09/19 08:09:41;;;;;;;;;;;16.50;53.60;;;14.21;58.10;100707.38;12268861;19;20264;-87
2022/09/19 08:13:54;;;;;;;;;;;16.30;53.00;;;14.31;58.02;100711.00;12271088;19;19919;-87
2022/09/19 08:18:13;;;;;;;;;;;16.40;53.20;;;14.55;58.19;100742.59;12273670;19;19918;-88
2022/09/19 08:22:15;;;;;;;;;;;16.50;53.20;;;14.33;58.26;100706.47;12270071;19;19919;-84
2022/09/19 08:26:26;;;;;;;;;;;16.50;53.60;;;14.71;58.19;100758.94;12271146;19;19918;-87
2022/09/19 08:30:27;;;;;;;;;;;16.60;53.30;;;14.76;58.10;100756.81;12277954;19;19919;-86
2022/09/19 08:34:33;;;;;;;;;;;16.70;53.30;;;14.69;58.17;100741.59;12268183;19;20577;-84
2022/09/19 08:38:37;;;;;;;;;;;16.70;53.20;;;14.88;58.15;100755.13;12268895;19;19922;-85
2022/09/19 08:43:19;;;;;;;;;;;16.70;53.10;;;14.95;58.08;100761.59;12267342;19;20353;-85
2022/09/19 08:47:23;;;;;;;;;;;16.90;53.20;;;15.01;58.30;100765.56;12271150;19;19917;-85
2022/09/19 08:51:45;;;;;;;;;;;16.90;53.20;;;14.74;58.16;100694.78;12269783;19;19922;-83
2022/09/19 08:55:48;;;;;;;;;;;17.00;53.30;;;15.27;58.25;100761.00;12265814;19;19935;-84
2022/09/19 08:59:56;;;;;;;;;;;17.10;53.40;;;15.23;58.37;100733.28;12267588;19;19911;-86
2022/09/19 09:04:24;;;;;;;;;;;17.20;53.50;;;15.49;58.24;100763.72;12268495;19;19932;-84
2022/09/19 09:09:35;;;;;;;;;;;17.40;53.50;;;15.72;58.17;100776.97;12270153;19;19922;-86
2022/09/19 09:14:03;;;;;;;;;;;17.50;53.40;;;15.87;58.20;100780.22;12253776;19;20050;-85
2022/09/19 09:18:23;;;;;;;;;;;17.60;53.50;;;15.98;58.22;100772.31;12255443;19;19919;-84
2022/09/19 09:22:33;;;;;;;;;;;17.70;53.40;;;16.03;58.23;100769.34;12254941;19;19978;-85
2022/09/19 09:26:59;;;;;;;;;;;17.80;53.30;;;16.11;58.35;100762.50;12254485;19;20340;-85
2022/09/19 09:31:47;;;;;;;;;;;17.90;53.20;;;16.30;58.15;100783.00;12255825;19;20340;-86
2022/09/19 09:36:15;;;;;;;;;;;18.30;53.20;;;15.89;58.22;100700.13;12251670;19;19918;-84
2022/09/19 09:45:27;;;;;;;;;;;18.30;53.00;;;16.62;58.05;100763.81;12249713;19;20080;-84
2022/09/19 09:49:33;;;;;;;;;;;18.50;53.00;;;16.90;58.05;100777.44;12254654;19;19939;-84
2022/09/19 09:56:14;;;;;;;;;;;18.70;53.10;;;17.12;57.84;100784.44;12252224;19;19950;-84
2022/09/19 09:58:55;;;;;;;;;;;18.80;53.00;;;17.27;57.87;100787.63;12255358;19;19911;-84
2022/09/19 10:03:41;;;;;;;;;;;18.90;52.90;;;17.44;57.94;100787.06;12252798;19;19911;-84
2022/09/19 10:08:18;;;;;;;;;;;19.10;53.00;;;17.57;57.85;100789.50;12254731;19;19948;-85
2022/09/19 10:12:38;;;;;;;;;;;19.30;52.80;;;17.78;57.97;100792.16;12254354;19;19923;-84
2022/09/19 10:16:42;;;;;;;;;;;19.50;52.70;;;17.96;57.84;100785.34;12249221;19;19990;-84
2022/09/19 10:20:49;;;;;;;;;;;19.60;52.60;;;18.13;57.83;100794.47;12252848;19;19926;-85
2022/09/19 10:24:59;;;;;;;;;;;19.80;52.50;;;18.17;57.53;100822.28;12250348;19;19911;-85
2022/09/19 10:29:12;;;;;;;;;;;19.90;51.60;;;17.87;57.29;100818.66;12255695;19;19944;-84
2022/09/19 10:33:34;;;;;;;;;;;19.90;50.40;;;17.46;57.41;100812.38;12251472;19;20266;-84
2022/09/19 10:37:37;;;;;;;;;;;19.70;50.50;;;17.20;57.53;100821.59;12250956;19;19930;-83
2022/09/19 10:41:40;;;;;;;;;;;19.50;50.70;;;16.93;57.52;100822.03;12251506;19;20367;-84
2022/09/19 10:45:46;;;;;;;;;;;19.30;50.80;;;16.70;57.83;100822.03;12248234;19;19942;-84
2022/09/19 10:49:49;;;;;;;;;;;19.00;51.10;;;16.51;57.87;100813.91;12250647;19;20298;-84
2022/09/19 10:54:11;;;;;;;;;;;18.80;51.20;;;16.47;57.86;100828.28;12248371;19;19933;-84
2022/09/19 10:58:19;;;;;;;;;;;18.70;51.50;;;16.42;57.88;100833.06;12255313;19;19915;-84
2022/09/19 11:02:27;;;;;;;;;;;18.50;51.70;;;16.24;57.85;100822.19;12253181;19;19926;-85
2022/09/19 11:06:32;;;;;;;;;;;18.40;51.90;;;16.19;57.75;100848.03;12253268;19;19927;-87
2022/09/19 11:10:40;;;;;;;;;;;18.30;51.90;;;16.07;57.91;100848.03;12250322;19;19929;-87
2022/09/19 11:14:48;;;;;;;;;;;18.20;51.90;;;15.98;57.92;100850.50;12248226;19;19919;-86
2022/09/19 11:19:02;;;;;;;;;;;18.10;51.90;;;15.91;57.87;100856.25;12252159;19;20321;-87
2022/09/19 11:23:32;;;;;;;;;;;18.00;51.90;;;15.77;58.04;100864.38;12253677;19;20351;-87
2022/09/19 11:27:44;;;;;;;;;;;17.90;51.90;;;15.70;58.02;100863.13;12247758;19;19926;-86
2022/09/19 11:32:18;;;;;;;;;;;18.00;52.10;;;15.65;58.10;100862.59;12262163;19;19911;-85
2022/09/19 11:36:52;;;;;;;;;;;17.70;52.10;;;15.59;57.79;100850.72;12250588;19;19922;-84
2022/09/19 11:41:23;;;;;;;;;;;17.60;52.10;;;15.52;58.19;100843.41;12251417;19;19947;-84
2022/09/19 11:45:32;;;;;;;;;;;17.60;52.30;;;15.64;57.92;100864.41;12250043;19;19915;-85
2022/09/19 11:50:13;;;;;;;;;;;17.60;52.40;;;15.67;57.99;100863.34;12248829;19;19919;-86
2022/09/19 11:54:35;;;;;;;;;;;17.60;52.40;;;15.74;57.91;100869.84;12247882;19;20637;-87
2022/09/19 11:58:54;;;;;;;;;;;17.60;52.40;;;15.78;58.07;100866.03;12248847;19;19922;-86
2022/09/19 12:03:10;;;;;;;;;;;17.60;52.60;;;15.89;57.94;100863.44;12246725;19;20358;-86
2022/09/19 12:07:53;;;;;;;;;;;17.70;52.80;;;15.90;58.12;100828.25;12249088;19;19919;-86
2022/09/19 12:12:02;;;;;;;;;;;17.80;53.10;;;16.26;58.16;100849.25;12247881;19;19913;-87
2022/09/19 12:16:24;;;;;;;;;;;18.00;53.40;;;16.52;58.25;100841.94;12241844;19;20399;-87
2022/09/19 12:20:44;;;;;;;;;;;18.10;53.40;;;16.49;58.12;100814.03;12249404;19;19915;-87
2022/09/19 12:25:12;;;;;;;;;;;18.30;53.60;;;16.81;58.15;100822.03;12247503;19;19921;-87
2022/09/19 12:29:25;;;;;;;;;;;18.60;53.60;;;17.13;58.13;100823.91;12245879;19;19927;-87
2022/09/19 12:33:45;;;;;;;;;;;18.80;53.70;;;17.46;57.99;100832.66;12243771;19;20266;-87
2022/09/19 12:38:25;;;;;;;;;;;19.00;53.50;;;17.58;57.94;100852.78;12245588;19;19918;-86
2022/09/19 12:42:52;;;;;;;;;;;19.30;53.50;;;17.65;57.70;100898.81;12242501;19;20488;-84
2022/09/19 12:47:11;;;;;;;;;;;19.40;52.70;;;17.13;57.75;100860.84;12247436;19;19919;-86
2022/09/19 12:52:10;;;;;;;;;;;19.70;52.50;;;17.17;57.68;100914.19;12252863;19;19919;-85
2022/09/19 12:56:28;;;;;;;;;;;19.30;52.00;;;16.86;57.88;100906.09;12253451;19;19918;-85
2022/09/19 13:00:31;;;;;;;;;;;19.10;51.90;;;16.37;57.78;100842.19;12258395;19;19915;-85
2022/09/19 13:04:39;;;;;;;;;;;19.00;52.00;;;16.63;57.68;100888.56;12259445;19;19915;-85
2022/09/19 13:08:54;;;;;;;;;;;18.80;52.00;;;16.48;58.04;100877.44;12259163;19;19915;-84
2022/09/19 13:13:00;;;;;;;;;;;18.70;52.00;;;16.50;57.79;100899.22;12257208;19;19997;-84
2022/09/19 13:25:52;;;;;;;;;;;18.60;52.10;;;16.25;57.94;100873.91;12255475;19;19947;-84
2022/09/19 13:29:55;;;;;;;;;;;18.30;52.20;;;16.29;58.01;100875.38;12266633;19;19914;-84
2022/09/19 13:33:58;;;;;;;;;;;18.30;52.30;;;16.21;58.01;100857.50;12259051;19;19922;-84
2022/09/19 13:38:16;;;;;;;;;;;18.60;52.60;;;16.36;58.17;100882.69;12258257;19;19955;-84
2022/09/19 13:42:24;;;;;;;;;;;18.30;52.60;;;16.00;58.03;100838.06;12258628;19;19919;-84
2022/09/19 13:46:54;;;;;;;;;;;18.50;52.60;;;16.14;58.03;100872.09;12257425;19;19918;-84
2022/09/19 13:51:05;;;;;;;;;;;18.20;52.60;;;16.11;57.95;100893.41;12255278;19;19919;-84
2022/09/19 13:55:13;;;;;;;;;;;18.20;52.60;;;16.21;57.95;100918.13;12248340;19;20484;-84
2022/09/19 13:59:31;;;;;;;;;;;18.20;52.80;;;16.22;58.22;100926.84;12256044;19;19928;-84
2022/09/19 14:03:36;;;;;;;;;;;18.10;52.80;;;16.20;58.28;100921.69;12253147;19;19919;-84
2022/09/19 14:07:45;;;;;;;;;;;18.50;53.10;;;16.28;58.09;100929.00;12255970;19;19918;-84
2022/09/19 14:11:49;;;;;;;;;;;18.10;53.30;;;16.23;58.15;100913.56;12253041;19;19922;-83
2022/09/19 14:16:29;;;;;;;;;;;18.20;53.00;;;16.30;58.11;100925.31;12250153;19;19953;-83
2022/09/19 14:20:54;;;;;;;;;;;18.10;53.00;;;16.38;58.27;100937.91;12255795;19;19918;-83
2022/09/19 14:25:02;;;;;;;;;;;18.20;53.10;;;16.38;58.22;100944.00;12250043;19;19915;-82
2022/09/19 14:29:33;;;;;;;;;;;18.20;53.20;;;16.37;58.13;100944.97;12255381;19;20253;-83
2022/09/19 14:33:41;;;;;;;;;;;18.20;53.00;;;16.38;58.11;100949.28;12248776;19;19979;-83
2022/09/19 14:38:17;;;;;;;;;;;18.30;53.00;;;16.34;58.12;100947.84;12257358;19;20321;-84
2022/09/19 14:42:24;;;;;;;;;;;18.20;52.80;;;16.32;57.87;100949.75;12252731;19;19954;-84
2022/09/19 14:46:32;;;;;;;;;;;18.20;52.90;;;16.26;57.91;100955.50;12255122;19;19952;-83
2022/09/19 14:50:38;;;;;;;;;;;18.30;52.80;;;16.19;58.09;100948.16;12253834;19;19926;-84
2022/09/19 14:54:43;;;;;;;;;;;18.30;52.70;;;16.17;58.22;100948.28;12253840;19;19946;-83
2022/09/19 14:58:50;;;;;;;;;;;18.10;52.70;;;16.18;58.25;100941.22;12256161;19;19914;-83
2022/09/19 15:02:52;;;;;;;;;;;18.10;52.80;;;16.05;58.26;100936.03;12251632;19;19926;-83
2022/09/19 15:06:56;;;;;;;;;;;18.10;52.80;;;16.15;58.23;100950.19;12253052;19;19911;-83
2022/09/19 15:11:04;;;;;;;;;;;18.00;52.70;;;16.14;58.12;100962.50;12244056;19;20150;-83
2022/09/19 15:15:05;;;;;;;;;;;18.00;52.70;;;16.07;58.11;100950.78;12248162;19;19994;-83
2022/09/19 15:19:08;;;;;;;;;;;18.00;52.90;;;16.16;58.21;100980.84;12251192;19;19915;-83
2022/09/19 15:23:09;;;;;;;;;;;18.00;52.80;;;16.09;58.19;100985.75;12258427;19;19911;-83
2022/09/19 15:27:11;;;;;;;;;;;18.00;52.70;;;15.97;58.17;100972.66;12256054;19;20317;-84
2022/09/19 15:31:21;;;;;;;;;;;18.30;52.80;;;15.81;58.16;100957.13;12252012;19;20383;-83
2022/09/19 15:35:24;;;;;;;;;;;17.90;52.60;;;15.71;58.27;100954.31;12251090;19;19911;-83
2022/09/19 15:39:26;;;;;;;;;;;18.10;52.60;;;15.79;58.15;100973.03;12251278;19;20551;-83
2022/09/19 15:43:28;;;;;;;;;;;17.80;52.60;;;15.58;58.22;100940.34;12251035;19;19914;-84
2022/09/19 15:47:30;;;;;;;;;;;17.70;52.60;;;15.54;58.22;100931.00;12250220;19;19939;-83
2022/09/19 15:51:33;;;;;;;;;;;17.70;52.60;;;15.73;58.19;100977.91;12249648;19;19922;-83
2022/09/19 15:55:34;;;;;;;;;;;17.70;52.70;;;15.56;58.21;100956.25;12246862;19;19919;-83
2022/09/19 15:59:37;;;;;;;;;;;17.80;52.60;;;15.42;58.28;100938.84;12248874;19;19919;-82
2022/09/19 16:03:41;;;;;;;;;;;17.60;52.60;;;15.62;58.42;100973.41;12247659;19;19939;-83
2022/09/19 16:12:19;;;;;;;;;;;17.80;52.60;;;15.54;58.27;100995.00;12248912;19;20262;-83
2022/09/19 16:16:27;;;;;;;;;;;17.50;52.50;;;15.51;58.37;100999.66;12248410;19;19925;-83
2022/09/19 16:20:31;;;;;;;;;;;17.40;52.60;;;15.46;58.40;101003.44;12247294;19;19911;-83
2022/09/19 16:24:42;;;;;;;;;;;17.40;52.60;;;15.31;58.29;100986.13;12257699;19;19934;-83
2022/09/19 16:28:51;;;;;;;;;;;17.40;52.60;;;15.30;58.23;100997.59;12260548;19;19915;-84
2022/09/19 16:32:52;;;;;;;;;;;17.30;52.60;;;15.21;58.10;100993.00;12256260;19;19986;-82
2022/09/19 16:36:55;;;;;;;;;;;17.20;52.60;;;15.26;58.19;101007.50;12253435;19;19915;-83
2022/09/19 16:41:02;;;;;;;;;;;17.20;52.60;;;15.16;58.29;100995.09;12256243;19;19915;-82
2022/09/19 16:45:20;;;;;;;;;;;17.20;52.60;;;15.17;58.34;100997.59;12253518;19;19943;-82
2022/09/19 16:49:21;;;;;;;;;;;17.20;52.70;;;15.04;58.19;100984.50;12256886;19;20193;-82
2022/09/19 16:53:22;;;;;;;;;;;17.10;52.70;;;14.63;58.42;100924.25;12254922;19;19919;-83
2022/09/19 16:57:24;;;;;;;;;;;17.10;52.70;;;14.94;58.28;100979.97;12252127;19;19906;-83
2022/09/19 17:01:25;;;;;;;;;;;17.50;52.90;;;14.96;58.25;100993.84;12259163;19;19915;-83
2022/09/19 17:05:30;;;;;;;;;;;17.00;52.70;;;14.97;58.52;101012.16;12254662;19;20372;-83
2022/09/19 17:09:32;;;;;;;;;;;17.00;52.60;;;15.02;58.36;101040.78;12258272;19;19915;-83
2022/09/19 17:13:34;;;;;;;;;;;17.40;52.80;;;14.83;58.40;101023.63;12258477;19;19923;-83
2022/09/19 17:17:35;;;;;;;;;;;16.90;52.60;;;14.82;58.31;101039.50;12258889;19;19914;-83
2022/09/19 17:21:38;;;;;;;;;;;16.90;52.60;;;14.88;58.48;101051.38;12266249;19;20304;-83
2022/09/19 17:25:42;;;;;;;;;;;16.90;52.60;;;14.88;58.38;101062.75;12255475;19;19931;-83
2022/09/19 17:29:44;;;;;;;;;;;16.80;52.60;;;14.85;58.30;101057.69;12258664;19;19932;-84
2022/09/19 17:33:45;;;;;;;;;;;16.80;52.60;;;14.41;58.27;100990.53;12255840;19;19930;-83
2022/09/19 17:37:46;;;;;;;;;;;17.20;52.80;;;14.80;58.27;101059.81;12252914;19;19986;-82
2022/09/19 17:41:48;;;;;;;;;;;16.80;52.60;;;14.69;58.42;101046.53;12257812;19;19907;-83
2022/09/19 17:45:59;;;;;;;;;;;16.70;52.60;;;14.71;58.31;101053.34;12255160;19;19915;-83
2022/09/19 17:50:00;;;;;;;;;;;16.70;52.60;;;14.75;58.28;101067.16;12258912;19;19907;-84
2022/09/19 17:54:01;;;;;;;;;;;16.80;53.00;;;14.61;58.45;101062.84;12255684;19;19918;-84
2022/09/19 17:58:03;;;;;;;;;;;16.80;52.70;;;14.68;58.40;101073.75;12256927;19;20302;-83
2022/09/19 18:06:26;;;;;;;;;;;16.60;52.60;;;14.55;58.34;101073.72;12258826;19;19965;-84
2022/09/19 18:10:29;;;;;;;;;;;16.50;52.60;;;14.45;58.24;101073.47;12258531;19;19935;-83
2022/09/19 18:14:31;;;;;;;;;;;16.50;52.70;;;14.53;58.38;101087.00;12256534;19;19999;-84
2022/09/19 18:18:36;;;;;;;;;;;16.50;52.70;;;14.49;58.47;101093.34;12253447;19;20304;-84
2022/09/19 18:22:37;;;;;;;;;;;16.40;52.70;;;14.45;58.41;101089.25;12255845;19;20328;-83
2022/09/19 18:26:39;;;;;;;;;;;16.40;52.70;;;14.30;58.49;101071.84;12258833;19;19914;-83
2022/09/19 18:30:40;;;;;;;;;;;16.40;52.80;;;13.95;58.32;101017.19;12255641;19;19919;-84
2022/09/19 18:34:41;;;;;;;;;;;16.40;52.80;;;14.03;58.38;101032.47;12254786;19;19915;-84
2022/09/19 18:38:43;;;;;;;;;;;16.70;53.00;;;14.31;58.42;101081.41;12254490;19;19952;-84
2022/09/19 18:42:44;;;;;;;;;;;16.30;52.90;;;14.36;58.46;101095.94;12255577;19;20451;-84
2022/09/19 18:46:46;;;;;;;;;;;16.30;52.90;;;14.30;58.35;101085.00;12256467;19;19906;-84
2022/09/19 18:50:47;;;;;;;;;;;16.40;52.90;;;14.34;58.49;101100.47;12256472;19;19915;-84
2022/09/19 18:54:49;;;;;;;;;;;16.20;52.90;;;14.34;58.57;101104.88;12255762;19;20367;-83
2022/09/19 18:58:52;;;;;;;;;;;16.30;52.90;;;14.33;58.56;101103.16;12256010;19;20290;-84
2022/09/19 19:02:53;;;;;;;;;;;16.30;52.90;;;14.19;58.36;101079.59;12255642;19;19926;-84
2022/09/19 19:06:54;;;;;;;;;;;16.20;52.90;;;14.29;58.55;101099.06;12254192;19;19907;-84
2022/09/19 19:10:55;;;;;;;;;;;16.30;53.00;;;14.22;58.53;101092.53;12256296;19;19914;-84
2022/09/19 19:14:57;;;;;;;;;;;16.30;52.90;;;14.24;58.45;101106.41;12261762;19;19917;-83
2022/09/19 19:18:59;;;;;;;;;;;16.30;52.90;;;14.27;58.55;101103.56;12258638;19;20337;-84
2022/09/19 19:23:00;;;;;;;;;;;16.30;52.90;;;14.26;58.57;101115.88;12257795;19;19925;-84